Time;durP1;ratioP1;P1;durP2;ratioP2;P2;SDS_P1;SDS_P2;PMS_P1;PMS_P2;Temp;Humidity;BMP_temperature;BMP_pressure;BME280_temperature;BME280_humidity;BME280_pressure;Samples;Min_cycle;Max_cycle;Signal;HPM_P1;HPM_P2
2022/12/03 00:01:48;;;;;;;41.97;17.60;;;;;;;;;;4988254;28;20145;-83
2022/12/03 00:04:14;;;;;;;43.80;18.38;;;;;;;;;;4984604;28;20702;-84
2022/12/03 00:06:39;;;;;;;47.53;19.13;;;;;;;;;;5003330;28;20538;-83
2022/12/03 00:09:07;;;;;;;37.40;17.20;;;;;;;;;;4987609;28;20038;-83
2022/12/03 00:11:33;;;;;;;43.42;16.85;;;;;;;;;;4988864;28;20048;-82
2022/12/03 00:14:01;;;;;;;39.10;17.45;;;;;;;;;;4998319;28;20037;-82
2022/12/03 00:16:26;;;;;;;39.70;17.08;;;;;;;;;;5003599;28;20579;-81
2022/12/03 00:18:51;;;;;;;43.25;18.48;;;;;;;;;;4996638;28;20033;-82
2022/12/03 00:21:17;;;;;;;43.97;18.35;;;;;;;;;;4984179;28;20107;-83
2022/12/03 00:23:42;;;;;;;39.05;16.20;;;;;;;;;;5004689;28;20033;-82
2022/12/03 00:26:08;;;;;;;38.63;16.60;;;;;;;;;;5011778;28;20689;-82
2022/12/03 00:28:33;;;;;;;37.53;17.02;;;;;;;;;;4978331;28;20038;-82
2022/12/03 00:30:59;;;;;;;45.25;18.50;;;;;;;;;;4999560;28;20367;-82
2022/12/03 00:33:24;;;;;;;42.75;17.90;;;;;;;;;;4983872;28;20046;-83
2022/12/03 00:35:49;;;;;;;40.42;17.58;;;;;;;;;;5001153;28;20037;-82
2022/12/03 00:38:15;;;;;;;35.90;15.18;;;;;;;;;;4972982;28;20053;-82
2022/12/03 00:40:40;;;;;;;40.80;17.20;;;;;;;;;;4976706;28;20531;-83
2022/12/03 00:43:06;;;;;;;44.10;16.85;;;;;;;;;;4994570;28;20134;-82
2022/12/03 00:45:31;;;;;;;39.83;16.40;;;;;;;;;;4991270;28;20064;-83
2022/12/03 00:47:56;;;;;;;44.95;17.55;;;;;;;;;;4998527;28;20092;-83
2022/12/03 00:50:22;;;;;;;40.42;18.42;;;;;;;;;;5006674;28;20058;-82
2022/12/03 00:52:48;;;;;;;38.88;15.82;;;;;;;;;;4968129;28;20034;-82
2022/12/03 00:55:14;;;;;;;41.75;17.40;;;;;;;;;;4964612;28;20124;-82
2022/12/03 00:57:40;;;;;;;37.97;16.60;;;;;;;;;;4972113;28;20478;-83
2022/12/03 01:00:06;;;;;;;37.00;16.33;;;;;;;;;;4972986;28;20042;-83
2022/12/03 01:02:34;;;;;;;40.42;17.13;;;;;;;;;;4961970;28;20475;-83
2022/12/03 01:04:59;;;;;;;39.13;15.85;;;;;;;;;;4961816;28;20038;-83
2022/12/03 01:07:25;;;;;;;41.58;17.65;;;;;;;;;;4982103;28;20049;-84
2022/12/03 01:09:50;;;;;;;40.63;17.05;;;;;;;;;;4970620;28;20035;-83
2022/12/03 01:12:15;;;;;;;36.28;14.80;;;;;;;;;;4980170;28;20549;-83
2022/12/03 01:14:41;;;;;;;39.97;17.15;;;;;;;;;;4970920;28;20150;-83
2022/12/03 01:17:06;;;;;;;37.90;15.90;;;;;;;;;;4972230;28;20054;-83
2022/12/03 01:19:34;;;;;;;41.28;17.42;;;;;;;;;;4964204;28;20093;-84
2022/12/03 01:21:59;;;;;;;40.28;17.23;;;;;;;;;;4967404;28;20062;-83
2022/12/03 01:24:25;;;;;;;40.83;17.83;;;;;;;;;;4960625;28;20038;-83
2022/12/03 01:26:50;;;;;;;38.13;16.10;;;;;;;;;;4992086;28;20034;-82
2022/12/03 01:29:16;;;;;;;34.30;15.90;;;;;;;;;;4991188;28;20041;-83
2022/12/03 01:34:26;;;;;;;37.15;16.25;;;;;;;;;;4983511;28;20057;-84
2022/12/03 01:36:51;;;;;;;38.30;17.23;;;;;;;;;;4971798;28;20065;-83
2022/12/03 01:39:19;;;;;;;36.15;16.90;;;;;;;;;;4965077;28;20199;-83
2022/12/03 01:41:46;;;;;;;39.40;16.80;;;;;;;;;;4966562;28;20475;-83
2022/12/03 01:44:26;;;;;;;38.30;17.45;;;;;;;;;;4958196;28;20046;-83
2022/12/03 01:46:53;;;;;;;43.70;17.48;;;;;;;;;;4977378;28;20060;-83
2022/12/03 01:49:21;;;;;;;39.15;17.08;;;;;;;;;;4958345;28;20026;-84
2022/12/03 01:51:48;;;;;;;38.42;17.85;;;;;;;;;;4995435;28;20504;-83
2022/12/03 01:54:17;;;;;;;36.05;18.10;;;;;;;;;;4980836;28;20359;-83
2022/12/03 01:56:44;;;;;;;38.70;18.10;;;;;;;;;;4980832;28;20065;-83
2022/12/03 01:59:14;;;;;;;38.03;17.00;;;;;;;;;;4987125;28;20093;-84
2022/12/03 02:01:39;;;;;;;38.35;17.20;;;;;;;;;;4972049;28;20509;-83
2022/12/03 02:04:05;;;;;;;34.38;17.40;;;;;;;;;;5002574;28;20046;-82
2022/12/03 02:06:30;;;;;;;38.47;17.73;;;;;;;;;;5009346;28;20338;-84
2022/12/03 02:08:58;;;;;;;39.35;19.05;;;;;;;;;;5000152;28;20038;-83
2022/12/03 02:11:28;;;;;;;40.28;18.40;;;;;;;;;;4969612;28;20489;-83
2022/12/03 02:14:03;;;;;;;41.08;18.77;;;;;;;;;;4968245;28;20457;-83
2022/12/03 02:16:31;;;;;;;36.50;17.02;;;;;;;;;;5015923;28;20045;-83
2022/12/03 02:18:57;;;;;;;41.08;18.45;;;;;;;;;;5002238;28;20034;-83
2022/12/03 02:21:42;;;;;;;39.92;18.70;;;;;;;;;;4967783;28;20034;-84
2022/12/03 02:24:35;;;;;;;40.80;18.52;;;;;;;;;;4984969;28;20086;-84
2022/12/03 02:27:01;;;;;;;39.60;17.15;;;;;;;;;;4982556;28;20055;-83
2022/12/03 02:29:26;;;;;;;36.45;16.55;;;;;;;;;;4962513;28;20039;-83
2022/12/03 02:31:51;;;;;;;39.13;18.45;;;;;;;;;;4980735;28;20053;-84
2022/12/03 02:34:55;;;;;;;35.70;16.05;;;;;;;;;;4984052;28;20041;-84
2022/12/03 02:37:23;;;;;;;39.15;17.02;;;;;;;;;;4967232;28;20605;-84
2022/12/03 02:39:53;;;;;;;42.75;17.77;;;;;;;;;;4966998;28;20034;-84
2022/12/03 02:42:34;;;;;;;38.85;18.10;;;;;;;;;;4950310;28;20564;-83
2022/12/03 02:45:02;;;;;;;39.60;18.52;;;;;;;;;;4965229;28;20042;-84
2022/12/03 02:47:29;;;;;;;38.42;18.08;;;;;;;;;;4966913;28;20042;-84
2022/12/03 02:49:54;;;;;;;34.95;16.60;;;;;;;;;;4947053;28;20440;-83
2022/12/03 02:52:20;;;;;;;38.60;16.88;;;;;;;;;;4968511;28;20034;-84
2022/12/03 02:54:46;;;;;;;40.15;17.52;;;;;;;;;;4965551;28;20492;-83
2022/12/03 02:57:12;;;;;;;41.15;16.90;;;;;;;;;;4962819;28;20043;-84
2022/12/03 02:59:37;;;;;;;43.97;18.55;;;;;;;;;;4967890;28;20042;-83
2022/12/03 03:02:02;;;;;;;42.15;18.25;;;;;;;;;;4971526;28;20057;-83
2022/12/03 03:04:28;;;;;;;41.33;18.70;;;;;;;;;;4970304;28;20053;-84
2022/12/03 03:06:53;;;;;;;37.97;17.08;;;;;;;;;;4973944;28;20518;-84
2022/12/03 03:09:19;;;;;;;45.10;18.85;;;;;;;;;;4986008;28;20041;-83
2022/12/03 03:11:45;;;;;;;36.05;18.00;;;;;;;;;;4973333;28;20504;-83
2022/12/03 03:14:10;;;;;;;42.42;18.90;;;;;;;;;;4962088;28;20038;-83
2022/12/03 03:16:36;;;;;;;42.85;17.55;;;;;;;;;;4967885;28;20034;-83
2022/12/03 03:19:01;;;;;;;39.97;17.88;;;;;;;;;;4985045;28;20429;-84
2022/12/03 03:21:27;;;;;;;35.80;15.93;;;;;;;;;;4994321;28;20358;-84
2022/12/03 03:23:52;;;;;;;42.95;17.75;;;;;;;;;;4985690;28;20674;-83
2022/12/03 03:26:18;;;;;;;38.67;17.23;;;;;;;;;;4990801;28;20034;-84
2022/12/03 03:28:48;;;;;;;40.97;17.80;;;;;;;;;;4995876;28;20041;-83
2022/12/03 03:31:15;;;;;;;39.25;17.75;;;;;;;;;;5005356;28;20029;-85
2022/12/03 03:33:43;;;;;;;40.42;18.27;;;;;;;;;;4992396;28;20045;-83
2022/12/03 03:36:08;;;;;;;39.67;17.02;;;;;;;;;;4982935;28;20034;-82
2022/12/03 03:38:34;;;;;;;36.05;16.13;;;;;;;;;;4981388;28;20045;-84
2022/12/03 03:41:01;;;;;;;34.88;16.73;;;;;;;;;;4976538;28;20374;-83
2022/12/03 03:43:27;;;;;;;42.57;17.07;;;;;;;;;;4992514;28;20493;-84
2022/12/03 03:45:53;;;;;;;36.70;16.02;;;;;;;;;;5006201;28;20104;-83
2022/12/03 03:48:19;;;;;;;39.83;17.15;;;;;;;;;;4990399;28;20042;-84
2022/12/03 03:50:44;;;;;;;37.85;17.02;;;;;;;;;;4983593;28;20045;-83
2022/12/03 03:53:11;;;;;;;38.85;16.92;;;;;;;;;;4972640;28;20071;-83
2022/12/03 03:55:36;;;;;;;34.60;16.23;;;;;;;;;;4973678;28;20475;-83
2022/12/03 03:58:02;;;;;;;41.63;17.55;;;;;;;;;;4993121;28;20045;-83
2022/12/03 04:00:29;;;;;;;33.85;16.88;;;;;;;;;;4984975;28;20165;-84
2022/12/03 04:02:54;;;;;;;35.55;15.48;;;;;;;;;;4970173;28;20108;-83
2022/12/03 04:05:21;;;;;;;40.53;17.13;;;;;;;;;;4970746;28;20498;-83
2022/12/03 04:07:46;;;;;;;39.40;16.80;;;;;;;;;;4983251;28;20031;-82
2022/12/03 04:12:57;;;;;;;39.58;16.80;;;;;;;;;;4983445;28;20037;-83
2022/12/03 04:15:23;;;;;;;38.22;16.73;;;;;;;;;;4971334;28;20401;-84
2022/12/03 04:20:32;;;;;;;36.13;15.77;;;;;;;;;;4964083;28;20097;-84
2022/12/03 04:22:58;;;;;;;38.40;17.25;;;;;;;;;;4963247;28;20046;-84
2022/12/03 04:30:51;;;;;;;37.80;16.98;;;;;;;;;;4961272;28;20038;-84
2022/12/03 04:36:00;;;;;;;36.78;16.45;;;;;;;;;;4963769;28;20514;-84
2022/12/03 04:38:26;;;;;;;34.72;15.35;;;;;;;;;;4946563;28;20039;-83
2022/12/03 04:41:00;;;;;;;40.08;16.52;;;;;;;;;;4961668;28;20037;-83
2022/12/03 04:43:31;;;;;;;38.10;16.27;;;;;;;;;;4965688;28;20128;-83
2022/12/03 04:45:56;;;;;;;42.60;18.27;;;;;;;;;;4945875;28;20679;-83
2022/12/03 04:48:22;;;;;;;38.45;17.52;;;;;;;;;;4950485;28;20035;-83
2022/12/03 04:50:47;;;;;;;40.15;17.70;;;;;;;;;;4949415;28;21064;-83
2022/12/03 04:53:13;;;;;;;35.60;17.45;;;;;;;;;;4945539;28;20031;-83
2022/12/03 04:55:38;;;;;;;40.15;17.83;;;;;;;;;;4961551;28;20026;-83
2022/12/03 04:58:04;;;;;;;38.40;18.02;;;;;;;;;;4967285;28;20050;-83
2022/12/03 05:00:29;;;;;;;36.58;16.60;;;;;;;;;;4969593;28;20030;-84
2022/12/03 05:02:55;;;;;;;38.08;16.42;;;;;;;;;;4981402;28;20057;-84
2022/12/03 05:05:20;;;;;;;38.35;16.45;;;;;;;;;;4970766;28;20030;-84
2022/12/03 05:07:45;;;;;;;36.08;16.25;;;;;;;;;;4969744;28;20398;-84
2022/12/03 05:10:11;;;;;;;42.63;17.50;;;;;;;;;;4970800;28;20577;-83
2022/12/03 05:12:37;;;;;;;35.78;16.48;;;;;;;;;;4970554;28;20057;-84
2022/12/03 05:15:05;;;;;;;38.25;17.67;;;;;;;;;;4962921;28;20046;-82
2022/12/03 05:17:31;;;;;;;38.30;17.38;;;;;;;;;;4966523;28;20421;-83
2022/12/03 05:22:40;;;;;;;39.05;17.20;;;;;;;;;;4975091;28;20417;-83
2022/12/03 05:25:06;;;;;;;39.50;17.77;;;;;;;;;;4969022;28;20034;-82
2022/12/03 05:27:32;;;;;;;36.22;16.83;;;;;;;;;;4986263;28;20039;-83
2022/12/03 05:29:57;;;;;;;33.35;16.25;;;;;;;;;;4980334;28;20030;-83
2022/12/03 05:32:22;;;;;;;39.42;18.27;;;;;;;;;;4970092;28;20054;-83
2022/12/03 05:34:48;;;;;;;34.97;17.17;;;;;;;;;;4982604;28;20034;-83
2022/12/03 05:37:13;;;;;;;40.50;17.30;;;;;;;;;;4971222;28;20039;-83
2022/12/03 05:39:39;;;;;;;38.88;16.40;;;;;;;;;;4968792;28;20034;-84
2022/12/03 05:44:48;;;;;;;39.50;17.33;;;;;;;;;;4964746;28;20567;-84
2022/12/03 05:47:13;;;;;;;39.58;17.42;;;;;;;;;;4945144;28;20046;-84
2022/12/03 05:49:39;;;;;;;35.38;16.70;;;;;;;;;;4960126;28;20050;-83
2022/12/03 05:52:04;;;;;;;37.08;17.50;;;;;;;;;;4964847;28;20038;-84
2022/12/03 05:54:30;;;;;;;36.28;16.88;;;;;;;;;;4962316;28;20121;-84
2022/12/03 05:56:55;;;;;;;46.47;19.10;;;;;;;;;;4967432;28;20034;-84
2022/12/03 05:59:21;;;;;;;41.97;17.75;;;;;;;;;;4968695;28;20053;-85
2022/12/03 06:01:46;;;;;;;42.55;19.13;;;;;;;;;;4967394;28;20470;-83
2022/12/03 06:04:11;;;;;;;40.20;18.05;;;;;;;;;;4980990;28;20046;-84
2022/12/03 06:06:37;;;;;;;42.72;17.90;;;;;;;;;;4951411;28;20069;-84
2022/12/03 06:09:03;;;;;;;40.30;17.50;;;;;;;;;;4959803;28;20172;-84
2022/12/03 06:11:29;;;;;;;39.75;17.75;;;;;;;;;;4956323;28;21767;-83
2022/12/03 06:13:54;;;;;;;42.60;18.60;;;;;;;;;;4972167;28;20100;-83
2022/12/03 06:16:20;;;;;;;37.35;17.40;;;;;;;;;;4983128;28;20486;-83
2022/12/03 06:18:45;;;;;;;43.72;18.38;;;;;;;;;;4985013;28;20031;-84
2022/12/03 06:21:11;;;;;;;44.40;18.05;;;;;;;;;;4979911;28;20137;-84
2022/12/03 06:23:43;;;;;;;41.67;17.63;;;;;;;;;;4980080;28;20039;-84
2022/12/03 06:26:09;;;;;;;44.30;18.17;;;;;;;;;;4950570;28;20835;-84
2022/12/03 06:28:34;;;;;;;40.28;18.10;;;;;;;;;;4952921;28;20428;-83
2022/12/03 06:31:00;;;;;;;45.15;19.35;;;;;;;;;;4969710;28;20043;-83
2022/12/03 06:33:25;;;;;;;40.65;17.90;;;;;;;;;;4963615;28;20084;-84
2022/12/03 06:35:50;;;;;;;42.65;19.13;;;;;;;;;;4959931;28;20368;-84
2022/12/03 06:38:16;;;;;;;37.05;17.48;;;;;;;;;;4949997;28;20390;-84
2022/12/03 06:40:41;;;;;;;38.33;17.95;;;;;;;;;;4957854;28;20042;-83
2022/12/03 06:43:08;;;;;;;40.20;17.55;;;;;;;;;;4949291;28;20039;-85
2022/12/03 06:45:33;;;;;;;36.40;17.33;;;;;;;;;;4942115;28;20049;-84
2022/12/03 06:47:58;;;;;;;44.22;19.42;;;;;;;;;;4968347;28;20039;-84
2022/12/03 06:50:24;;;;;;;38.85;17.75;;;;;;;;;;4969078;28;20056;-84
2022/12/03 06:52:49;;;;;;;42.67;18.60;;;;;;;;;;4968602;28;20041;-84
2022/12/03 06:55:15;;;;;;;41.17;19.08;;;;;;;;;;4979662;28;20058;-83
2022/12/03 06:57:40;;;;;;;43.00;17.73;;;;;;;;;;4966792;28;20492;-84
2022/12/03 07:00:07;;;;;;;42.92;18.70;;;;;;;;;;4979403;28;20038;-84
2022/12/03 07:02:33;;;;;;;43.63;16.35;;;;;;;;;;4968378;28;20532;-83
2022/12/03 07:05:14;;;;;;;41.95;17.88;;;;;;;;;;4926697;28;20453;-84
2022/12/03 07:07:39;;;;;;;42.83;18.65;;;;;;;;;;4946617;28;20035;-84
2022/12/03 07:10:05;;;;;;;40.08;17.70;;;;;;;;;;4941977;28;20521;-84
2022/12/03 07:12:31;;;;;;;41.50;17.60;;;;;;;;;;4947657;28;20047;-83
2022/12/03 07:14:57;;;;;;;42.70;17.55;;;;;;;;;;4952102;28;20039;-84
2022/12/03 07:17:22;;;;;;;44.58;18.70;;;;;;;;;;4940523;28;20120;-84
2022/12/03 07:19:48;;;;;;;48.83;19.25;;;;;;;;;;4963183;28;20034;-84
2022/12/03 07:22:13;;;;;;;45.17;19.52;;;;;;;;;;4959326;28;20035;-84
2022/12/03 07:24:38;;;;;;;44.85;18.70;;;;;;;;;;4952011;28;20368;-84
2022/12/03 07:27:04;;;;;;;43.97;19.15;;;;;;;;;;4963884;28;20070;-83
2022/12/03 07:29:29;;;;;;;43.65;17.80;;;;;;;;;;4947049;28;20479;-84
2022/12/03 07:31:55;;;;;;;45.92;18.55;;;;;;;;;;4945839;28;20457;-83
2022/12/03 07:34:20;;;;;;;43.85;18.67;;;;;;;;;;4943510;28;20035;-84
2022/12/03 07:36:46;;;;;;;40.05;18.38;;;;;;;;;;4956227;28;20038;-84
2022/12/03 07:39:12;;;;;;;41.13;18.88;;;;;;;;;;4983341;28;20037;-84
2022/12/03 07:41:37;;;;;;;45.08;19.33;;;;;;;;;;4953515;28;20039;-83
2022/12/03 07:44:02;;;;;;;49.28;19.92;;;;;;;;;;4950634;28;20506;-83
2022/12/03 07:46:28;;;;;;;43.20;19.10;;;;;;;;;;4946541;28;20047;-83
2022/12/03 07:49:10;;;;;;;47.60;20.50;;;;;;;;;;4952800;28;20576;-87
2022/12/03 07:51:44;;;;;;;41.08;18.65;;;;;;;;;;4965759;28;20038;-86
2022/12/03 07:54:09;;;;;;;42.53;18.83;;;;;;;;;;4962031;28;20038;-82
2022/12/03 07:56:35;;;;;;;40.65;18.02;;;;;;;;;;4979938;28;20537;-82
2022/12/03 07:59:00;;;;;;;48.25;19.88;;;;;;;;;;4967427;28;20070;-82
2022/12/03 08:01:25;;;;;;;44.00;19.73;;;;;;;;;;4962063;28;20077;-82
2022/12/03 08:03:51;;;;;;;43.03;18.30;;;;;;;;;;4980750;28;20050;-82
2022/12/03 08:06:16;;;;;;;45.90;18.52;;;;;;;;;;4974803;28;20065;-82
2022/12/03 08:08:42;;;;;;;45.88;19.27;;;;;;;;;;4979605;28;20130;-82
2022/12/03 08:11:13;;;;;;;47.65;20.42;;;;;;;;;;4997643;28;20077;-82
2022/12/03 08:13:39;;;;;;;45.97;19.33;;;;;;;;;;4986849;28;20033;-81
2022/12/03 08:16:14;;;;;;;45.08;19.77;;;;;;;;;;4980837;28;20536;-80
2022/12/03 08:18:40;;;;;;;44.95;19.23;;;;;;;;;;4994192;28;20117;-80
2022/12/03 08:21:09;;;;;;;45.00;19.92;;;;;;;;;;4999753;28;20121;-80
2022/12/03 08:23:35;;;;;;;41.80;18.70;;;;;;;;;;4975348;28;20039;-80
2022/12/03 08:26:01;;;;;;;46.08;18.52;;;;;;;;;;4991658;28;20116;-81
2022/12/03 08:28:27;;;;;;;46.28;20.27;;;;;;;;;;4980392;28;20044;-81
2022/12/03 08:31:11;;;;;;;45.22;18.30;;;;;;;;;;4984834;28;20033;-80
2022/12/03 08:33:37;;;;;;;47.08;19.10;;;;;;;;;;4990025;28;20126;-80
2022/12/03 08:36:25;;;;;;;45.85;20.10;;;;;;;;;;5005143;28;20038;-81
2022/12/03 08:39:02;;;;;;;44.78;19.80;;;;;;;;;;4983854;28;20041;-81
2022/12/03 08:44:28;;;;;;;44.65;19.83;;;;;;;;;;5008001;28;20080;-81
2022/12/03 08:47:12;;;;;;;47.47;19.90;;;;;;;;;;4989114;28;20429;-82
2022/12/03 08:49:39;;;;;;;45.65;18.65;;;;;;;;;;4990122;28;20096;-81
2022/12/03 08:52:15;;;;;;;46.63;20.20;;;;;;;;;;4987865;28;20484;-81
2022/12/03 08:54:52;;;;;;;48.50;19.37;;;;;;;;;;5000900;28;20044;-81
2022/12/03 08:57:29;;;;;;;45.17;18.83;;;;;;;;;;4984995;28;20297;-81
2022/12/03 09:00:19;;;;;;;45.22;19.30;;;;;;;;;;4984006;28;20599;-81
2022/12/03 09:02:50;;;;;;;43.38;19.63;;;;;;;;;;4990991;28;20528;-80
2022/12/03 09:05:19;;;;;;;45.75;20.00;;;;;;;;;;4981159;28;20042;-81
2022/12/03 09:07:45;;;;;;;44.75;19.23;;;;;;;;;;4975190;28;20489;-82
2022/12/03 09:10:10;;;;;;;46.65;19.30;;;;;;;;;;4970085;28;20066;-82
2022/12/03 09:12:36;;;;;;;54.28;19.55;;;;;;;;;;4972925;28;20713;-82
2022/12/03 09:15:01;;;;;;;43.50;19.60;;;;;;;;;;4971597;28;20057;-82
2022/12/03 09:17:27;;;;;;;49.15;20.60;;;;;;;;;;5019991;28;20572;-81
2022/12/03 09:19:53;;;;;;;45.67;19.63;;;;;;;;;;4993821;28;20366;-80
2022/12/03 09:22:18;;;;;;;44.42;19.83;;;;;;;;;;4998269;28;20502;-80
2022/12/03 09:24:44;;;;;;;45.45;19.98;;;;;;;;;;5008441;28;20483;-79
2022/12/03 09:27:09;;;;;;;48.70;18.73;;;;;;;;;;4984024;28;20033;-80
2022/12/03 09:29:34;;;;;;;47.65;18.30;;;;;;;;;;4990271;28;20359;-80
2022/12/03 09:32:00;;;;;;;45.35;18.52;;;;;;;;;;5002416;28;20068;-80
2022/12/03 09:34:25;;;;;;;42.45;18.13;;;;;;;;;;4972053;28;20046;-80
2022/12/03 09:36:51;;;;;;;47.10;19.15;;;;;;;;;;4984226;28;20392;-80
2022/12/03 09:39:16;;;;;;;48.08;19.02;;;;;;;;;;4992514;28;20029;-81
2022/12/03 09:41:42;;;;;;;45.97;19.80;;;;;;;;;;4991880;28;20135;-80
2022/12/03 09:44:09;;;;;;;47.25;19.58;;;;;;;;;;5001286;28;20152;-81
2022/12/03 09:46:35;;;;;;;46.30;20.00;;;;;;;;;;4990745;28;20052;-83
2022/12/03 09:49:01;;;;;;;44.50;19.00;;;;;;;;;;4989821;28;20217;-82
2022/12/03 09:51:33;;;;;;;49.80;20.77;;;;;;;;;;4970905;28;20107;-83
2022/12/03 09:53:59;;;;;;;47.15;20.05;;;;;;;;;;4972786;28;20119;-82
2022/12/03 09:56:25;;;;;;;42.47;19.00;;;;;;;;;;4981057;28;20085;-91
2022/12/03 09:58:50;;;;;;;45.90;20.13;;;;;;;;;;4986001;28;20478;-83
2022/12/03 10:01:16;;;;;;;45.47;19.90;;;;;;;;;;5001637;28;20112;-83
2022/12/03 10:03:45;;;;;;;50.42;19.60;;;;;;;;;;4974620;28;20398;-86
2022/12/03 10:06:16;;;;;;;45.78;19.05;;;;;;;;;;4975291;28;20049;-83
2022/12/03 10:08:41;;;;;;;44.13;19.60;;;;;;;;;;4982244;28;20493;-83
2022/12/03 10:11:07;;;;;;;50.25;18.75;;;;;;;;;;4988899;28;20125;-83
2022/12/03 10:13:36;;;;;;;48.13;19.58;;;;;;;;;;4985771;28;20519;-83
2022/12/03 10:16:01;;;;;;;43.92;19.35;;;;;;;;;;4976185;28;20088;-83
2022/12/03 10:18:31;;;;;;;49.72;20.50;;;;;;;;;;4972316;28;20042;-83
2022/12/03 10:20:57;;;;;;;45.45;19.60;;;;;;;;;;4968858;28;20061;-83
2022/12/03 10:23:27;;;;;;;48.78;20.40;;;;;;;;;;4967839;28;20398;-83
2022/12/03 10:26:02;;;;;;;52.60;20.40;;;;;;;;;;4969216;28;20509;-84
2022/12/03 10:28:32;;;;;;;48.10;19.45;;;;;;;;;;4977620;28;20044;-83
2022/12/03 10:30:58;;;;;;;43.15;18.92;;;;;;;;;;4991169;28;20447;-83
2022/12/03 10:33:32;;;;;;;44.78;18.05;;;;;;;;;;4982696;28;20108;-83
2022/12/03 10:36:14;;;;;;;43.40;19.00;;;;;;;;;;5005489;28;20037;-83
2022/12/03 10:38:39;;;;;;;46.13;19.83;;;;;;;;;;4996331;28;20060;-82
2022/12/03 10:41:26;;;;;;;43.38;18.20;;;;;;;;;;4981238;28;20698;-82
2022/12/03 10:43:51;;;;;;;44.42;19.30;;;;;;;;;;4982773;28;20041;-83
2022/12/03 10:46:18;;;;;;;46.88;19.33;;;;;;;;;;4987303;28;20060;-82
2022/12/03 10:48:44;;;;;;;51.90;19.40;;;;;;;;;;5002129;28;20476;-82
2022/12/03 10:51:19;;;;;;;54.05;19.38;;;;;;;;;;4997661;28;20032;-82
2022/12/03 10:53:46;;;;;;;43.80;18.00;;;;;;;;;;4988289;28;20092;-82
2022/12/03 10:56:23;;;;;;;44.65;18.80;;;;;;;;;;4971278;28;20049;-82
2022/12/03 10:58:49;;;;;;;;;;;;;;;;;;4963930;28;20689;-82
2022/12/03 11:01:23;;;;;;;43.88;17.60;;;;;;;;;;4969444;28;20091;-83
2022/12/03 11:03:49;;;;;;;42.63;18.27;;;;;;;;;;4991923;28;20038;-83
2022/12/03 11:06:16;;;;;;;49.17;19.75;;;;;;;;;;4971987;28;20095;-83
2022/12/03 11:08:45;;;;;;;47.30;18.52;;;;;;;;;;4984772;28;20042;-82
2022/12/03 11:11:20;;;;;;;55.70;20.67;;;;;;;;;;4988684;28;20473;-84
2022/12/03 11:13:52;;;;;;;52.75;20.40;;;;;;;;;;4984487;28;20370;-82
2022/12/03 11:16:39;;;;;;;44.28;18.40;;;;;;;;;;4979896;28;20030;-83
2022/12/03 11:19:12;;;;;;;49.40;18.45;;;;;;;;;;5009991;28;20379;-83
2022/12/03 11:22:05;;;;;;;52.47;18.73;;;;;;;;;;5000663;28;20062;-83
2022/12/03 11:24:33;;;;;;;48.00;18.73;;;;;;;;;;5001270;28;20490;-83
2022/12/03 11:26:59;;;;;;;46.20;18.25;;;;;;;;;;4987396;28;20041;-82
2022/12/03 11:29:46;;;;;;;46.88;18.88;;;;;;;;;;5005860;28;20038;-83
2022/12/03 11:32:37;;;;;;;48.67;19.15;;;;;;;;;;4996737;28;20037;-82
2022/12/03 11:35:21;;;;;;;40.15;17.92;;;;;;;;;;5015001;28;20099;-83
2022/12/03 11:37:47;;;;;;;45.75;18.30;;;;;;;;;;4990652;28;20034;-83
2022/12/03 11:40:15;;;;;;;43.42;19.08;;;;;;;;;;4987490;28;20433;-83
2022/12/03 11:42:41;;;;;;;49.45;18.80;;;;;;;;;;5002663;28;20487;-84
2022/12/03 11:45:09;;;;;;;49.72;18.38;;;;;;;;;;4984089;28;20066;-82
2022/12/03 11:47:58;;;;;;;38.78;17.55;;;;;;;;;;4996114;28;20490;-82
2022/12/03 11:50:32;;;;;;;42.90;17.65;;;;;;;;;;4988709;28;20039;-83
2022/12/03 11:52:59;;;;;;;38.90;16.70;;;;;;;;;;4986960;28;20497;-84
2022/12/03 11:55:36;;;;;;;52.50;19.83;;;;;;;;;;5000767;28;20402;-83
2022/12/03 11:58:04;;;;;;;44.90;18.20;;;;;;;;;;4998533;28;20080;-83
2022/12/03 12:00:32;;;;;;;42.30;17.15;;;;;;;;;;4988205;28;20288;-83
2022/12/03 12:02:58;;;;;;;39.55;16.70;;;;;;;;;;4997943;28;20046;-83
2022/12/03 12:05:31;;;;;;;46.33;17.95;;;;;;;;;;5001475;28;20037;-83
2022/12/03 12:07:57;;;;;;;44.67;16.67;;;;;;;;;;5005145;28;20540;-83
2022/12/03 12:10:42;;;;;;;42.72;17.00;;;;;;;;;;4986812;28;20046;-83
2022/12/03 12:13:30;;;;;;;45.78;17.77;;;;;;;;;;5002282;28;20208;-83
2022/12/03 12:16:05;;;;;;;39.15;15.48;;;;;;;;;;5011409;28;20041;-84
2022/12/03 12:18:36;;;;;;;42.22;17.60;;;;;;;;;;5006788;28;20041;-83
2022/12/03 12:21:42;;;;;;;45.40;17.55;;;;;;;;;;5001970;28;20539;-83
2022/12/03 12:24:29;;;;;;;45.78;16.02;;;;;;;;;;5012825;28;20038;-83
2022/12/03 12:26:56;;;;;;;43.35;17.73;;;;;;;;;;4989431;28;20047;-84
2022/12/03 12:29:21;;;;;;;43.50;16.40;;;;;;;;;;5007609;28;20377;-83
2022/12/03 12:31:50;;;;;;;43.47;19.05;;;;;;;;;;5003478;28;20030;-83
2022/12/03 12:34:15;;;;;;;41.88;16.48;;;;;;;;;;4997678;28;20527;-83
2022/12/03 12:36:43;;;;;;;44.53;17.55;;;;;;;;;;4997671;28;20037;-83
2022/12/03 12:39:13;;;;;;;46.03;17.13;;;;;;;;;;5002034;28;20045;-83
2022/12/03 12:41:47;;;;;;;47.40;17.50;;;;;;;;;;5008776;28;20037;-84
2022/12/03 12:44:13;;;;;;;43.17;16.95;;;;;;;;;;4985534;28;20448;-83
2022/12/03 12:46:46;;;;;;;40.97;16.63;;;;;;;;;;4998160;28;20445;-83
2022/12/03 12:49:13;;;;;;;38.05;16.45;;;;;;;;;;4989576;28;20034;-84
2022/12/03 12:51:46;;;;;;;37.03;16.38;;;;;;;;;;4981781;28;20512;-83
2022/12/03 12:54:13;;;;;;;41.75;15.82;;;;;;;;;;4992542;28;20543;-83
2022/12/03 12:56:41;;;;;;;40.72;16.98;;;;;;;;;;4990704;28;20045;-83
2022/12/03 12:59:13;;;;;;;39.97;15.10;;;;;;;;;;4994972;28;20047;-84
2022/12/03 13:01:39;;;;;;;42.40;15.70;;;;;;;;;;5009010;28;20025;-83
2022/12/03 13:04:38;;;;;;;36.50;14.93;;;;;;;;;;5017898;28;20096;-84
2022/12/03 13:07:04;;;;;;;43.58;17.38;;;;;;;;;;4989560;28;20113;-84
2022/12/03 13:09:29;;;;;;;41.88;16.38;;;;;;;;;;4993638;28;20128;-84
2022/12/03 13:12:00;;;;;;;36.58;16.30;;;;;;;;;;4993488;28;20497;-83
2022/12/03 13:14:30;;;;;;;45.17;17.42;;;;;;;;;;4981990;28;20529;-84
2022/12/03 13:16:58;;;;;;;42.47;15.30;;;;;;;;;;4988182;28;20050;-84
2022/12/03 13:19:25;;;;;;;38.30;15.25;;;;;;;;;;4998868;28;20480;-82
2022/12/03 13:21:59;;;;;;;40.92;16.17;;;;;;;;;;4990040;28;20120;-82
2022/12/03 13:24:49;;;;;;;36.17;14.80;;;;;;;;;;5000798;28;20050;-82
2022/12/03 13:27:15;;;;;;;51.78;20.02;;;;;;;;;;4977167;28;20067;-82
2022/12/03 13:29:40;;;;;;;56.83;23.65;;;;;;;;;;5011803;28;20058;-82
2022/12/03 13:32:32;;;;;;;40.95;16.50;;;;;;;;;;5008398;28;20545;-82
2022/12/03 13:35:06;;;;;;;43.58;16.55;;;;;;;;;;4973904;28;20093;-83
2022/12/03 13:37:31;;;;;;;42.63;16.00;;;;;;;;;;5015009;28;20574;-83
2022/12/03 13:39:57;;;;;;;40.00;16.23;;;;;;;;;;4990525;28;20112;-83
2022/12/03 13:42:45;;;;;;;38.65;16.17;;;;;;;;;;4986938;28;20121;-83
2022/12/03 13:45:16;;;;;;;46.55;17.52;;;;;;;;;;4998515;28;20117;-83
2022/12/03 13:47:46;;;;;;;38.33;16.38;;;;;;;;;;5002796;28;20044;-82
2022/12/03 13:50:36;;;;;;;42.63;16.05;;;;;;;;;;4983327;28;20137;-82
2022/12/03 13:53:21;;;;;;;39.25;15.95;;;;;;;;;;4979679;28;20501;-82
2022/12/03 13:55:51;;;;;;;44.00;16.15;;;;;;;;;;5005543;28;20034;-80
2022/12/03 13:58:16;;;;;;;45.97;17.20;;;;;;;;;;4989684;28;20560;-82
2022/12/03 14:00:41;;;;;;;56.35;20.95;;;;;;;;;;4983467;28;20030;-82
2022/12/03 14:03:07;;;;;;;47.72;17.67;;;;;;;;;;4986162;28;20536;-81
2022/12/03 14:05:33;;;;;;;44.22;17.27;;;;;;;;;;4985868;28;20313;-82
2022/12/03 14:08:00;;;;;;;40.17;16.13;;;;;;;;;;4988237;28;20113;-82
2022/12/03 14:10:26;;;;;;;;;;;;;;;;;;4999730;28;20399;-81
2022/12/03 14:12:52;;;;;;;47.63;16.67;;;;;;;;;;5004142;28;19924;-82
2022/12/03 14:15:17;;;;;;;43.92;16.17;;;;;;;;;;4987447;28;20072;-82
2022/12/03 14:17:42;;;;;;;40.35;15.18;;;;;;;;;;4995212;28;20034;-82
2022/12/03 14:20:08;;;;;;;44.70;16.95;;;;;;;;;;4989787;28;20034;-82
2022/12/03 14:22:36;;;;;;;38.70;15.77;;;;;;;;;;4983401;28;20105;-82
2022/12/03 14:25:02;;;;;;;38.85;16.80;;;;;;;;;;4999393;28;20034;-81
2022/12/03 14:27:28;;;;;;;40.63;16.77;;;;;;;;;;4985172;28;20040;-81
2022/12/03 14:29:53;;;;;;;42.25;15.98;;;;;;;;;;4986708;28;20607;-81
2022/12/03 14:32:21;;;;;;;36.00;15.00;;;;;;;;;;4998018;28;20034;-81
2022/12/03 14:34:47;;;;;;;37.85;16.65;;;;;;;;;;4989843;28;20481;-81
2022/12/03 14:37:12;;;;;;;38.40;15.27;;;;;;;;;;4989281;28;20045;-82
2022/12/03 14:39:38;;;;;;;41.08;15.10;;;;;;;;;;4984145;28;20443;-82
2022/12/03 14:42:12;;;;;;;38.40;14.65;;;;;;;;;;4987182;28;20033;-81
2022/12/03 14:44:46;;;;;;;34.42;14.20;;;;;;;;;;5000783;28;20053;-82
2022/12/03 14:47:14;;;;;;;34.67;14.25;;;;;;;;;;4997772;28;20044;-85
2022/12/03 14:49:40;;;;;;;36.95;15.00;;;;;;;;;;4993566;28;20126;-85
2022/12/03 14:52:06;;;;;;;35.95;14.88;;;;;;;;;;4987508;28;20145;-84